Sirius — WDA2145 — position and weather

sailwx.info

Track history (hours):
 
Tides and Currents Weather Stations Pressure Air Temp Water Temp Dewpoint Dewpoint Depression Visibility Wind Speed Wind Dir Waves Ship Positions

Sirius

Owner: TISBURY TOWING AND TRANSPORTATION INC, TISBURY, MA. More information available from US FCC via Universal Licensing System and Coast Guard Vessel Documentation Center.

Last reported at 2016-Jul-07 13:21 UTC. Time now 2016-Jul-24 14:39 UTC.
Position N 42°02' W 070°31'.
Warning: this ship's position is 17 days out of date.

Length 19 m; draft 1.9 m.

Type: Towing. MMSI: 367181040.

Date/timePositionNaut miles runAvg speedWind from/ knotsBaromVisibWave heightAir tempDewpointWater temp
2016-Jul-07 13:21N 42°02' W 070°31'6 6.9
2016-Jul-07 12:33N 42°07' W 070°31'7 6.8
2016-Jul-07 11:33N 42°14' W 070°31'7 6.6
2016-Jul-07 10:34N 42°20' W 070°32'7 7.0
2016-Jul-07 09:34N 42°27' W 070°32'7 7.3
2016-Jul-07 08:33N 42°35' W 070°33'6 5.6
2016-Jul-07 07:34N 42°40' W 070°35'2 1.7
2016-Jul-07 06:34N 42°41' W 070°37'0 0.0
2016-Jul-07 05:33N 42°41' W 070°37'7 6.5
2016-Jul-07 04:33N 42°35' W 070°32'8 8.5
2016-Jul-07 03:34N 42°27' W 070°31'9 8.6
2016-Jul-07 02:34N 42°18' W 070°31'47 2.5
2016-Jul-06 07:24N 41°33' W 070°50'  
Track history (hours):
 
Tides and Currents Weather Stations Pressure Air Temp Water Temp Dewpoint Dewpoint Depression Visibility Wind Speed Wind Dir Waves Ship Positions

Sirius

Owner: TISBURY TOWING AND TRANSPORTATION INC, TISBURY, MA. More information available from US FCC via Universal Licensing System and Coast Guard Vessel Documentation Center.

Last reported at 2016-Jul-07 13:21 UTC. Time now 2016-Jul-24 14:39 UTC.
Position N 42°02' W 070°31'.
Warning: this ship's position is 17 days out of date.

Length 19 m; draft 1.9 m.

Type: Towing. MMSI: 367181040.

Date/timePositionNaut miles runAvg speedWind from/ knotsBaromVisibWave heightAir tempDewpointWater temp
2016-Jul-07 13:21N 42°02' W 070°31'6 6.9
2016-Jul-07 12:33N 42°07' W 070°31'7 6.8
2016-Jul-07 11:33N 42°14' W 070°31'7 6.6
2016-Jul-07 10:34N 42°20' W 070°32'7 7.0
2016-Jul-07 09:34N 42°27' W 070°32'7 7.3
2016-Jul-07 08:33N 42°35' W 070°33'6 5.6
2016-Jul-07 07:34N 42°40' W 070°35'2 1.7
2016-Jul-07 06:34N 42°41' W 070°37'0 0.0
2016-Jul-07 05:33N 42°41' W 070°37'7 6.5
2016-Jul-07 04:33N 42°35' W 070°32'8 8.5
2016-Jul-07 03:34N 42°27' W 070°31'9 8.6
2016-Jul-07 02:34N 42°18' W 070°31'47 2.5
2016-Jul-06 07:24N 41°33' W 070°50'  

Dump ship's entire track history